עמוד ראשי
METAR-TAF:

METAR-TAF

שדות תעופה :

High Level, אלברטה, קנדה

קו רוחב: 58-37N, קו אורך: 117-10W, גובה: 338מטר

תצפית מזג אוויר נוכחית

הדו"ח נערך לפני 23דקות, בשעה 20:00 UTC
רוח 4קשר מכיוון צפון עם משבים עד 15קשר , משתנה בין צפון/צפון-מערב ו מזרח
טמפרטורת 12 צלסיוס
לחות 40%
לחץ 1011 hPa
ראות: 24.1קילומטר
עננים פזורים בגובה 6500רגל
עננים בינוניים בגובה 26000רגל

METAR: CYOJ 172000Z 01004G15KT 330V080 15SM SCT065 BKN260 12/M01 A2984 RMK SC3CS4 SLP120

זמן: 14:23 (20:23 UTC)

תחזית

הדו"ח נערך לפני 1 שעות ו 43דקות, בשעה 18:40 UTC
תחזית בתוקף מ 17 ב 19 UTC עד 18 ב 07 UTC
רוח 10קשר מכיוון צפון עם משבים עד 20קשר
ראות: 10קילומטר
עננים פזורים בגובה 5000רגל
עננים בינוניים בגובה 24000רגל
מ 18 ב 0200UTC
רוח 6קשר מכיוון צפון
ראות: 10קילומטר
עננים פזורים בגובה 24000רגל

TAF: CYOJ 171840Z 1719/1807 35010G20KT P6SM SCT050 BKN240 FM180200 35006KT P6SM SCT240 RMK NXT FCST BY 180100Z

תצפיות ותחזיות מזג אוויר לגבי יותר מ- 4,000 שדות תעופה ברחבי העולם. דוחות METAR ו- TAF.

התחנות הזמינות מסומנות בנקודות צהובות ואדומות על גבי המפה.

העבר את העכבר לנקודה הצבעונית על מנת לראות את שם התחנה.

לאחר מכן, לחץ כדי לראות את תוכן ואת תחזיות מזג האוויר.

כדי לשנות את המפה: לחץ על הכפתורים הירוקים עם הפלוס השחור כדי להתקרב; על הכפתור הירוק עם המקף כדי להתרחק; או בחיצים הירוקים למפות סמוכות.


METAR-TAF: